KHSP/HSP METAR and TAF weather

Enter ICAO airport designator
Station Type Date Time Source
KHSP METAR 2019/10/23 20:35 UTC NOAA

KHSP 232035Z AUTO 28011KT 10SM CLR 11/M01 A3015 RMK AO2 T01051014


Station Type Date Time Source
KHSP Decoded METAR 2019/10/23 20:35 UTC NOAA

Hot Springs / Ingalls, VA, United States (KHSP) 37-57N 079-50W
Oct 23, 2019 - 04:35 PM EDT / 2019.10.23 2035 UTC
Wind: from the W (280 degrees) at 13 MPH (11 KT):0
Visibility: 10 mile(s):0
Sky conditions: clear
Temperature: 50.9 F (10.5 C)
Dew Point: 29.5 F (-1.4 C)
Relative Humidity: 43%
Pressure (altimeter): 30.15 in. Hg (1020 hPa)
ob: KHSP 232035Z AUTO 28011KT 10SM CLR 11/M01 A3015 RMK AO2 T01051014
cycle: 20

Station Type Date Time Source
KHSP TAF UTC NOAA

Error!

Example: see airport list